logo
Rechercher aéroport 
image banner adimage banner adimage banner ad
image banner ad

UAAL - Usharal

Situé à Usharal, Kazakhstan

ICAO - , IATA -

Données fournies par Airmate  

Information générale

Coordonnées: N46°11'27" E80°49'47"
Élévation : 1295 feet MSL.
Variation magnétique : 5° East
Voir autres Aéroports à East Kazakhstan

Données opérationnelles

Special qualification required
Heure actuelle UTC:
Heure actuelle locale:
Météo à : - ( 0 km )
METAR: CYLW 251623Z AUTO 29014KT 280V360 9SM OVC055 18/07 A3003 RMK SLP171 DENSITY ALT 2000FT
Voir NOTAMs / SUP AIP / TFR affectant cet aéroport [VIEW]
Fréquences de communication: [VIEW]

Pistes:

Identifiant RWYQFULongueur (ft)Largeur (ft)SurfaceLDA (ft)
0998°8858148CONC8858
27278°8858148CONC8858

Coordonnées de l'aéroport

Adresse: Usharal Kazakhstan

Vue satellite de UAAL